createdAt,value
2024-03-23T00:00:31.275Z,8.92
2024-03-23T00:02:57.588Z,8.92
2024-03-23T00:05:23.968Z,8.92
2024-03-23T00:07:50.276Z,8.91
2024-03-23T00:10:16.580Z,8.91
2024-03-23T00:12:42.956Z,8.90
2024-03-23T00:15:09.243Z,8.89
2024-03-23T00:17:35.574Z,8.90
2024-03-23T00:20:01.900Z,8.89
2024-03-23T00:22:28.203Z,8.90
2024-03-23T00:24:54.620Z,8.92
2024-03-23T00:27:20.916Z,8.92
2024-03-23T00:29:47.216Z,8.92
2024-03-23T00:32:13.522Z,8.92
2024-03-23T00:34:39.848Z,8.93
2024-03-23T00:37:06.178Z,8.91
2024-03-23T00:39:32.481Z,8.91
2024-03-23T00:42:01.326Z,8.92
2024-03-23T00:44:27.837Z,8.91
2024-03-23T00:46:54.278Z,8.90
2024-03-23T00:49:20.726Z,8.89
2024-03-23T00:51:47.032Z,8.88
2024-03-23T00:54:13.340Z,8.87
2024-03-23T00:56:39.639Z,8.87
2024-03-23T00:59:05.986Z,8.87
2024-03-23T01:01:32.304Z,8.87
2024-03-23T01:03:58.601Z,8.86
2024-03-23T01:06:24.926Z,8.85
2024-03-23T01:08:51.277Z,8.83
2024-03-23T01:11:17.624Z,8.82
2024-03-23T01:13:43.944Z,8.83
2024-03-23T01:16:10.271Z,8.82
2024-03-23T01:18:36.605Z,8.81
2024-03-23T01:21:02.900Z,8.83
2024-03-23T01:23:29.207Z,8.83
2024-03-23T01:25:55.502Z,8.84
2024-03-23T01:28:21.805Z,8.84
2024-03-23T01:30:48.109Z,8.85
2024-03-23T01:33:14.414Z,8.85
2024-03-23T01:35:40.723Z,8.85
2024-03-23T01:38:07.040Z,8.84
2024-03-23T01:40:33.360Z,8.83
2024-03-23T01:42:59.679Z,8.83
2024-03-23T01:45:25.993Z,8.81
2024-03-23T01:47:52.318Z,8.83
2024-03-23T01:50:18.619Z,8.83
2024-03-23T01:52:44.926Z,8.84
2024-03-23T01:55:11.226Z,8.84
2024-03-23T01:57:37.540Z,8.85
2024-03-23T02:00:03.843Z,8.85
2024-03-23T02:02:30.157Z,8.84
2024-03-23T02:04:56.509Z,8.83
2024-03-23T02:07:22.850Z,8.83
2024-03-23T02:09:49.189Z,8.82
2024-03-23T02:12:15.551Z,8.82
2024-03-23T02:14:41.881Z,8.84
2024-03-23T02:17:08.193Z,8.84
2024-03-23T02:19:34.524Z,8.80
2024-03-23T02:22:00.847Z,8.79
2024-03-23T02:24:27.184Z,8.78
2024-03-23T02:26:53.523Z,8.78
2024-03-23T02:29:19.835Z,8.77
2024-03-23T02:31:46.213Z,8.78
2024-03-23T02:34:12.533Z,8.76
2024-03-23T02:36:38.861Z,8.73
2024-03-23T02:39:05.187Z,8.71
2024-03-23T02:41:31.480Z,8.71
2024-03-23T02:43:57.820Z,8.71
2024-03-23T02:46:24.128Z,8.70
2024-03-23T02:48:50.482Z,8.71
2024-03-23T02:51:16.794Z,8.73
2024-03-23T02:53:43.122Z,8.73
2024-03-23T02:56:09.464Z,8.71
2024-03-23T02:58:35.797Z,8.70
2024-03-23T03:01:02.123Z,8.70
2024-03-23T03:03:28.485Z,8.71
2024-03-23T03:05:54.797Z,8.71
2024-03-23T03:08:21.159Z,8.70
2024-03-23T03:10:47.455Z,8.70
2024-03-23T03:13:13.761Z,8.70
2024-03-23T03:15:40.062Z,8.69
2024-03-23T03:18:06.351Z,8.71
2024-03-23T03:20:32.757Z,8.72
2024-03-23T03:22:59.096Z,8.70
2024-03-23T03:25:25.429Z,8.68
2024-03-23T03:27:51.774Z,8.66
2024-03-23T03:30:18.105Z,8.65
2024-03-23T03:32:44.435Z,8.65
2024-03-23T03:35:10.743Z,8.63
2024-03-23T03:37:37.107Z,8.62
2024-03-23T03:40:03.405Z,8.64
2024-03-23T03:42:29.789Z,8.64
2024-03-23T03:44:56.158Z,8.63
2024-03-23T03:47:22.510Z,8.61
2024-03-23T03:49:48.822Z,8.59
2024-03-23T03:52:15.131Z,8.60
2024-03-23T03:54:41.453Z,8.60
2024-03-23T03:57:07.768Z,8.58
2024-03-23T03:59:34.129Z,8.56
2024-03-23T04:02:00.449Z,8.54
2024-03-23T04:04:26.999Z,8.51
2024-03-23T04:06:53.330Z,8.50
2024-03-23T04:09:19.643Z,8.48
2024-03-23T04:11:45.933Z,8.46
2024-03-23T04:14:12.235Z,8.47
2024-03-23T04:16:38.541Z,8.45
2024-03-23T04:19:04.877Z,8.45
2024-03-23T04:21:31.232Z,8.44
2024-03-23T04:23:57.667Z,8.44
2024-03-23T04:26:23.989Z,8.44
2024-03-23T04:28:50.304Z,8.43
2024-03-23T04:31:16.642Z,8.45
2024-03-23T04:33:42.959Z,8.46
2024-03-23T04:36:09.296Z,8.45
2024-03-23T04:38:35.693Z,8.43
2024-03-23T04:41:02.050Z,8.40
2024-03-23T04:43:28.417Z,8.37
2024-03-23T04:45:54.748Z,8.36
2024-03-23T04:48:21.067Z,8.34
2024-03-23T04:50:47.422Z,8.36
2024-03-23T04:53:13.764Z,8.37
2024-03-23T04:55:40.055Z,8.40
2024-03-23T04:58:06.547Z,8.41
2024-03-23T05:00:32.897Z,8.42
2024-03-23T05:02:59.237Z,8.45
2024-03-23T05:05:25.550Z,8.44
2024-03-23T05:07:51.875Z,8.40
2024-03-23T05:10:18.220Z,8.37
2024-03-23T05:12:44.534Z,8.33
2024-03-23T05:15:10.861Z,8.30
2024-03-23T05:17:37.261Z,8.33
2024-03-23T05:20:03.586Z,8.33
2024-03-23T05:22:29.911Z,8.34
2024-03-23T05:24:56.264Z,8.37
2024-03-23T05:27:22.559Z,8.39
2024-03-23T05:29:48.853Z,8.40
2024-03-23T05:32:15.142Z,8.41
2024-03-23T05:34:41.438Z,8.45
2024-03-23T05:37:08.012Z,8.51
2024-03-23T05:39:34.343Z,8.53
2024-03-23T05:42:00.640Z,8.52
2024-03-23T05:44:26.969Z,8.52
2024-03-23T05:46:53.285Z,8.54
2024-03-23T05:49:19.581Z,8.53
2024-03-23T05:51:45.938Z,8.51
2024-03-23T05:54:12.239Z,8.52
2024-03-23T05:56:38.723Z,8.54
2024-03-23T05:59:05.022Z,8.52
2024-03-23T06:01:31.340Z,8.50
2024-03-23T06:03:57.665Z,8.48
2024-03-23T06:06:23.992Z,8.46
2024-03-23T06:08:50.336Z,8.45
2024-03-23T06:11:16.656Z,8.45
2024-03-23T06:13:42.957Z,8.47
2024-03-23T06:16:09.451Z,8.48
2024-03-23T06:18:35.778Z,8.52
2024-03-23T06:21:02.075Z,8.52
2024-03-23T06:23:28.416Z,8.55
2024-03-23T06:25:54.775Z,8.58
2024-03-23T06:28:21.083Z,8.62
2024-03-23T06:30:47.446Z,8.65
2024-03-23T06:33:13.740Z,8.65
2024-03-23T06:35:40.136Z,8.66
2024-03-23T06:38:06.617Z,8.71
2024-03-23T06:40:33.001Z,8.74
2024-03-23T06:42:59.320Z,8.78
2024-03-23T06:45:25.639Z,8.84
2024-03-23T06:47:51.957Z,8.85
2024-03-23T06:50:18.266Z,8.87
2024-03-23T06:52:44.569Z,8.89
2024-03-23T06:55:11.141Z,8.92
2024-03-23T06:57:37.483Z,8.95
2024-03-23T07:00:06.200Z,8.99
2024-03-23T07:02:32.570Z,9.05
2024-03-23T07:04:58.881Z,9.11
2024-03-23T07:07:25.213Z,9.10
2024-03-23T07:09:51.738Z,9.11
2024-03-23T07:12:18.063Z,9.11
2024-03-23T07:14:44.384Z,9.07
2024-03-23T07:17:10.736Z,9.04
2024-03-23T07:19:37.076Z,9.07
2024-03-23T07:22:03.401Z,9.07
2024-03-23T07:24:29.712Z,9.05
2024-03-23T07:26:56.024Z,9.07
2024-03-23T07:29:22.341Z,9.13
2024-03-23T07:31:48.673Z,9.19
2024-03-23T07:34:14.995Z,9.22
2024-03-23T07:36:41.316Z,9.22
2024-03-23T07:39:12.976Z,9.23
2024-03-23T07:41:39.667Z,9.25
2024-03-23T07:44:05.994Z,9.28
2024-03-23T07:46:32.321Z,9.34
2024-03-23T07:48:58.656Z,9.38
2024-03-23T07:51:24.986Z,9.43
2024-03-23T07:53:51.317Z,9.48
2024-03-23T07:56:17.636Z,9.53
2024-03-23T07:58:44.147Z,9.61
2024-03-23T08:01:10.485Z,9.67
2024-03-23T08:03:39.744Z,9.71
2024-03-23T08:06:06.055Z,9.73
2024-03-23T08:08:32.481Z,9.74
2024-03-23T08:10:58.790Z,9.74
2024-03-23T08:13:25.090Z,9.74
2024-03-23T08:15:51.426Z,9.75
2024-03-23T08:18:17.774Z,9.76
2024-03-23T08:20:44.230Z,9.75
2024-03-23T08:23:10.563Z,9.77
2024-03-23T08:25:36.937Z,9.82
2024-03-23T08:28:03.263Z,9.86
2024-03-23T08:30:29.591Z,9.92
2024-03-23T08:32:55.919Z,10.01
2024-03-23T08:35:22.243Z,10.16
2024-03-23T08:37:48.559Z,10.29
2024-03-23T08:40:14.944Z,10.40
2024-03-23T08:42:41.314Z,10.49
2024-03-23T08:45:07.616Z,10.60
2024-03-23T08:47:33.939Z,10.67
2024-03-23T08:50:00.367Z,10.70
2024-03-23T08:52:26.806Z,10.76
2024-03-23T08:54:53.117Z,10.86
2024-03-23T08:57:19.435Z,10.92
2024-03-23T08:59:45.748Z,10.95
2024-03-23T09:02:12.154Z,10.99
2024-03-23T09:04:38.573Z,11.03
2024-03-23T09:07:04.887Z,11.04
2024-03-23T09:09:31.217Z,11.07
2024-03-23T09:11:57.552Z,11.11
2024-03-23T09:14:24.012Z,11.13
2024-03-23T09:16:50.358Z,11.20
2024-03-23T09:19:18.271Z,11.27
2024-03-23T09:21:44.572Z,11.28
2024-03-23T09:24:10.891Z,11.30
2024-03-23T09:26:37.267Z,11.25
2024-03-23T09:29:03.605Z,11.21
2024-03-23T09:31:29.921Z,11.18
2024-03-23T09:33:56.275Z,11.17
2024-03-23T09:36:22.586Z,11.19
2024-03-23T09:38:49.185Z,11.17
2024-03-23T09:41:15.529Z,11.17
2024-03-23T09:43:41.864Z,11.20
2024-03-23T09:46:08.160Z,11.27
2024-03-23T09:48:34.507Z,11.34
2024-03-23T09:51:00.850Z,11.37
2024-03-23T09:53:27.273Z,11.31
2024-03-23T09:55:53.584Z,11.24
2024-03-23T09:58:20.004Z,11.32
2024-03-23T10:00:46.354Z,11.39
2024-03-23T10:03:12.647Z,11.41
2024-03-23T10:05:41.771Z,11.45
2024-03-23T10:08:11.301Z,11.47
2024-03-23T10:10:37.622Z,11.52
2024-03-23T10:13:03.948Z,11.54
2024-03-23T10:15:30.366Z,11.58
2024-03-23T10:17:56.797Z,11.60
2024-03-23T10:20:23.108Z,11.63
2024-03-23T10:22:49.441Z,11.62
2024-03-23T10:25:15.891Z,11.63
2024-03-23T10:27:42.238Z,11.59
2024-03-23T10:30:08.560Z,11.55
2024-03-23T10:32:34.914Z,11.49
2024-03-23T10:35:01.271Z,11.39
2024-03-23T10:37:27.598Z,11.40
2024-03-23T10:39:53.898Z,11.36
2024-03-23T10:42:20.344Z,11.29
2024-03-23T10:44:46.680Z,11.35
2024-03-23T10:47:13.011Z,11.47
2024-03-23T10:49:39.351Z,11.57
2024-03-23T10:52:05.732Z,11.61
2024-03-23T10:54:32.120Z,11.69
2024-03-23T10:56:58.491Z,11.77
2024-03-23T10:59:24.823Z,11.86
2024-03-23T11:01:51.196Z,12.01
2024-03-23T11:04:17.522Z,12.16
2024-03-23T11:06:43.904Z,12.23
2024-03-23T11:09:10.241Z,12.33
2024-03-23T11:11:36.571Z,12.39
2024-03-23T11:14:02.864Z,12.42
2024-03-23T11:16:29.189Z,12.45
2024-03-23T11:18:55.510Z,12.52
2024-03-23T11:21:21.907Z,12.64
2024-03-23T11:23:48.227Z,12.73
2024-03-23T11:26:14.560Z,12.73
2024-03-23T11:28:40.896Z,12.75
2024-03-23T11:31:07.218Z,12.75
2024-03-23T11:33:33.557Z,12.73
2024-03-23T11:36:00.104Z,12.69
2024-03-23T11:38:26.422Z,12.68
2024-03-23T11:40:52.984Z,12.70
2024-03-23T11:43:19.294Z,12.76
2024-03-23T11:45:45.645Z,12.82
2024-03-23T11:48:11.985Z,12.90
2024-03-23T11:50:38.299Z,12.94
2024-03-23T11:53:04.683Z,12.96
2024-03-23T11:55:30.984Z,13.00
2024-03-23T11:57:57.320Z,13.04
2024-03-23T12:00:23.657Z,13.06
2024-03-23T12:02:49.961Z,13.05
2024-03-23T12:05:16.378Z,13.07
2024-03-23T12:07:42.917Z,13.06
2024-03-23T12:10:09.214Z,13.01
2024-03-23T12:12:35.524Z,12.94
2024-03-23T12:15:01.890Z,12.90
2024-03-23T12:17:28.229Z,12.87
2024-03-23T12:19:54.531Z,12.86
2024-03-23T12:22:20.853Z,12.88
2024-03-23T12:24:47.164Z,12.93
2024-03-23T12:27:13.519Z,13.00
2024-03-23T12:29:39.869Z,13.07
2024-03-23T12:32:06.279Z,13.15
2024-03-23T12:34:32.616Z,13.23
2024-03-23T12:36:58.924Z,13.27
2024-03-23T12:39:25.225Z,13.30
2024-03-23T12:41:51.555Z,13.32
2024-03-23T12:44:18.837Z,13.33
2024-03-23T12:46:45.318Z,13.32
2024-03-23T12:49:14.680Z,13.30
2024-03-23T12:51:40.995Z,13.29
2024-03-23T12:54:07.500Z,13.32
2024-03-23T12:56:33.933Z,13.36
2024-03-23T12:59:00.239Z,13.39
2024-03-23T13:01:26.666Z,13.41
2024-03-23T13:03:52.982Z,13.43
2024-03-23T13:06:19.276Z,13.47
2024-03-23T13:08:45.595Z,13.53
2024-03-23T13:11:11.885Z,13.57
2024-03-23T13:13:38.174Z,13.59
2024-03-23T13:16:04.479Z,13.62
2024-03-23T13:18:30.783Z,13.63
2024-03-23T13:20:57.103Z,13.64
2024-03-23T13:23:23.415Z,13.64
2024-03-23T13:25:49.712Z,13.63
2024-03-23T13:28:16.048Z,13.63
2024-03-23T13:30:42.425Z,13.65
2024-03-23T13:33:08.762Z,13.68
2024-03-23T13:35:35.081Z,13.74
2024-03-23T13:38:01.415Z,13.81
2024-03-23T13:40:27.751Z,13.92
2024-03-23T13:42:54.078Z,14.01
2024-03-23T13:45:20.399Z,14.08
2024-03-23T13:47:46.784Z,14.15
2024-03-23T13:50:13.098Z,14.24
2024-03-23T13:52:39.407Z,14.31
2024-03-23T13:55:05.729Z,14.33
2024-03-23T13:57:32.054Z,14.34
2024-03-23T13:59:58.520Z,14.34
2024-03-23T14:02:24.823Z,14.31
2024-03-23T14:04:51.169Z,14.31
2024-03-23T14:07:17.493Z,14.35
2024-03-23T14:09:43.827Z,14.38
2024-03-23T14:12:10.145Z,14.43
2024-03-23T14:14:36.474Z,14.47
2024-03-23T14:17:02.809Z,14.53
2024-03-23T14:19:29.317Z,14.58
2024-03-23T14:21:55.624Z,14.61
2024-03-23T14:24:21.939Z,14.63
2024-03-23T14:26:48.280Z,14.62
2024-03-23T14:29:14.612Z,14.63
2024-03-23T14:31:41.068Z,14.64
2024-03-23T14:34:07.384Z,14.65
2024-03-23T14:36:33.694Z,14.71
2024-03-23T14:39:00.207Z,14.77
2024-03-23T14:41:26.505Z,14.77
2024-03-23T14:43:52.907Z,14.76
2024-03-23T14:46:19.218Z,14.75
2024-03-23T14:48:45.529Z,14.73
2024-03-23T14:51:11.869Z,14.73
2024-03-23T14:53:38.178Z,14.73
2024-03-23T14:56:04.513Z,14.73
2024-03-23T14:58:31.015Z,14.74
2024-03-23T15:00:57.350Z,14.73
2024-03-23T15:03:23.670Z,14.69
2024-03-23T15:05:50.015Z,14.68
2024-03-23T15:08:16.386Z,14.65
2024-03-23T15:10:42.683Z,14.66
2024-03-23T15:13:08.995Z,14.65
2024-03-23T15:15:35.306Z,14.63
2024-03-23T15:18:01.932Z,14.61
2024-03-23T15:20:28.235Z,14.59
2024-03-23T15:22:54.541Z,14.57
2024-03-23T15:25:20.863Z,14.55
2024-03-23T15:27:49.570Z,14.53
2024-03-23T15:30:17.945Z,14.51
2024-03-23T15:32:44.306Z,14.47
2024-03-23T15:35:10.596Z,14.42
2024-03-23T15:37:36.911Z,14.38
2024-03-23T15:40:03.221Z,14.33
2024-03-23T15:42:29.570Z,14.27
2024-03-23T15:44:55.889Z,14.20
2024-03-23T15:47:22.203Z,14.12
2024-03-23T15:49:48.533Z,14.05
2024-03-23T15:52:14.861Z,13.97
2024-03-23T15:54:41.157Z,13.91
2024-03-23T15:57:07.469Z,13.86
2024-03-23T15:59:33.922Z,13.81
2024-03-23T16:02:00.236Z,13.78
2024-03-23T16:04:26.563Z,13.75
2024-03-23T16:06:52.862Z,13.72
2024-03-23T16:09:19.194Z,13.68
2024-03-23T16:11:45.538Z,13.65
2024-03-23T16:14:11.849Z,13.62
2024-03-23T16:16:38.200Z,13.60
2024-03-23T16:19:04.514Z,13.59
2024-03-23T16:21:31.048Z,13.56
2024-03-23T16:23:57.376Z,13.50
2024-03-23T16:26:23.705Z,13.46
2024-03-23T16:28:50.050Z,13.42
2024-03-23T16:31:16.377Z,13.39
2024-03-23T16:33:42.717Z,13.36
2024-03-23T16:36:09.085Z,13.31
2024-03-23T16:38:35.599Z,13.26
2024-03-23T16:41:01.958Z,13.22
2024-03-23T16:43:28.277Z,13.17
2024-03-23T16:45:54.600Z,13.14
2024-03-23T16:48:20.917Z,13.10
2024-03-23T16:50:47.229Z,13.07
2024-03-23T16:53:13.538Z,13.03
2024-03-23T16:55:39.883Z,12.99
2024-03-23T16:58:06.366Z,12.94
2024-03-23T17:00:32.732Z,12.88
2024-03-23T17:02:59.159Z,12.86
2024-03-23T17:05:25.459Z,12.83
2024-03-23T17:07:51.773Z,12.76
2024-03-23T17:10:18.089Z,12.69
2024-03-23T17:12:44.448Z,12.64
2024-03-23T17:15:13.026Z,12.61
2024-03-23T17:17:41.045Z,12.57
2024-03-23T17:20:07.545Z,12.54
2024-03-23T17:22:33.862Z,12.53
2024-03-23T17:25:00.265Z,12.51
2024-03-23T17:27:26.668Z,12.47
2024-03-23T17:29:53.060Z,12.41
2024-03-23T17:32:19.366Z,12.33
2024-03-23T17:34:45.669Z,12.20
2024-03-23T17:37:12.003Z,12.06
2024-03-23T17:39:38.623Z,11.92
2024-03-23T17:42:04.947Z,11.80
2024-03-23T17:44:31.272Z,11.67
2024-03-23T17:46:57.603Z,11.52
2024-03-23T17:49:23.908Z,11.44
2024-03-23T17:51:50.289Z,11.39
2024-03-23T17:54:16.612Z,11.31
2024-03-23T17:56:42.928Z,11.24
2024-03-23T17:59:09.392Z,11.16
2024-03-23T18:01:35.724Z,11.09
2024-03-23T18:04:02.047Z,10.91
2024-03-23T18:06:28.396Z,10.85
2024-03-23T18:08:54.698Z,10.79
2024-03-23T18:11:20.989Z,10.73
2024-03-23T18:13:47.306Z,10.70
2024-03-23T18:16:16.220Z,10.68
2024-03-23T18:18:44.422Z,10.70
2024-03-23T18:21:10.728Z,10.71
2024-03-23T18:23:39.032Z,10.70
2024-03-23T18:26:05.512Z,10.69
2024-03-23T18:28:31.827Z,10.66
2024-03-23T18:30:58.143Z,10.61
2024-03-23T18:33:24.565Z,10.58
2024-03-23T18:35:50.897Z,10.56
2024-03-23T18:38:17.195Z,10.54
2024-03-23T18:40:43.510Z,10.50
2024-03-23T18:43:09.883Z,10.47
2024-03-23T18:45:36.214Z,10.44
2024-03-23T18:48:05.018Z,10.40
2024-03-23T18:50:31.719Z,10.35
2024-03-23T18:52:58.032Z,10.30
2024-03-23T18:55:24.589Z,10.27
2024-03-23T18:57:50.941Z,10.29
2024-03-23T19:00:17.244Z,10.29
2024-03-23T19:02:43.556Z,10.28
2024-03-23T19:05:09.962Z,10.30
2024-03-23T19:07:36.275Z,10.29
2024-03-23T19:10:02.925Z,10.28
2024-03-23T19:12:29.295Z,10.27
2024-03-23T19:14:55.654Z,10.23
2024-03-23T19:17:22.011Z,10.22
2024-03-23T19:19:49.147Z,10.21
2024-03-23T19:22:15.471Z,10.18
2024-03-23T19:24:42.011Z,10.19
2024-03-23T19:27:08.316Z,10.20
2024-03-23T19:29:34.624Z,10.20
2024-03-23T19:32:00.967Z,10.19
2024-03-23T19:34:27.278Z,10.19
2024-03-23T19:36:53.605Z,10.17
2024-03-23T19:39:19.912Z,10.15
2024-03-23T19:41:46.218Z,10.14
2024-03-23T19:44:12.712Z,10.14
2024-03-23T19:46:39.083Z,10.16
2024-03-23T19:49:05.413Z,10.17
2024-03-23T19:51:31.728Z,10.18
2024-03-23T19:53:58.567Z,10.19
2024-03-23T19:56:26.089Z,10.19
2024-03-23T19:58:52.439Z,10.19
2024-03-23T20:01:18.779Z,10.17
2024-03-23T20:03:45.083Z,10.15
2024-03-23T20:06:11.437Z,10.15
2024-03-23T20:08:37.751Z,10.12
2024-03-23T20:11:04.104Z,10.08
2024-03-23T20:13:30.402Z,10.02
2024-03-23T20:15:56.714Z,9.96
2024-03-23T20:18:23.069Z,9.87
2024-03-23T20:20:49.385Z,9.74
2024-03-23T20:23:15.707Z,9.51
2024-03-23T20:25:42.020Z,9.24
2024-03-23T20:28:08.331Z,9.04
2024-03-23T20:30:34.646Z,8.91
2024-03-23T20:33:00.951Z,8.77
2024-03-23T20:35:27.272Z,8.58
2024-03-23T20:37:53.557Z,8.47
2024-03-23T20:40:19.879Z,8.38
2024-03-23T20:42:46.205Z,8.28
2024-03-23T20:45:12.523Z,8.22
2024-03-23T20:47:38.830Z,8.11
2024-03-23T20:50:05.122Z,8.01
2024-03-23T20:52:31.436Z,7.96
2024-03-23T20:54:57.770Z,7.91
2024-03-23T20:57:24.105Z,7.85
2024-03-23T20:59:50.431Z,7.77
2024-03-23T21:02:16.819Z,7.67
2024-03-23T21:04:43.121Z,7.60
2024-03-23T21:07:09.443Z,7.53
2024-03-23T21:09:37.081Z,7.47
2024-03-23T21:12:04.562Z,7.37
2024-03-23T21:14:30.896Z,7.30
2024-03-23T21:16:57.184Z,7.25
2024-03-23T21:19:23.499Z,7.22
2024-03-23T21:21:49.807Z,7.18
2024-03-23T21:24:16.167Z,7.13
2024-03-23T21:26:42.501Z,7.08
2024-03-23T21:29:08.810Z,7.00
2024-03-23T21:31:35.145Z,6.89
2024-03-23T21:34:01.509Z,6.78
2024-03-23T21:36:27.812Z,6.68
2024-03-23T21:38:54.130Z,6.54
2024-03-23T21:41:20.454Z,6.44
2024-03-23T21:43:46.845Z,6.34
2024-03-23T21:46:13.293Z,6.24
2024-03-23T21:48:39.614Z,6.18
2024-03-23T21:51:06.003Z,6.11
2024-03-23T21:53:32.320Z,6.04
2024-03-23T21:55:58.641Z,5.98
2024-03-23T21:58:24.971Z,5.92
2024-03-23T22:00:51.299Z,5.87
2024-03-23T22:03:17.654Z,5.79
2024-03-23T22:05:43.998Z,5.71
2024-03-23T22:08:10.328Z,5.64
2024-03-23T22:10:39.604Z,5.61
2024-03-23T22:13:07.151Z,5.57
2024-03-23T22:15:33.498Z,5.51
2024-03-23T22:17:59.818Z,5.47
2024-03-23T22:20:26.124Z,5.46
2024-03-23T22:22:52.448Z,5.46
2024-03-23T22:25:18.871Z,5.44
2024-03-23T22:27:45.186Z,5.42
2024-03-23T22:30:11.494Z,5.39
2024-03-23T22:32:37.794Z,5.36
2024-03-23T22:35:04.108Z,5.36
2024-03-23T22:37:30.414Z,5.37
2024-03-23T22:39:56.736Z,5.36
2024-03-23T22:42:23.044Z,5.27
2024-03-23T22:44:49.332Z,5.23
2024-03-23T22:47:15.643Z,5.20
2024-03-23T22:49:41.954Z,5.18
2024-03-23T22:52:08.290Z,5.14
2024-03-23T22:54:34.595Z,5.07
2024-03-23T22:57:00.891Z,5.00
2024-03-23T22:59:27.219Z,4.94
2024-03-23T23:01:53.520Z,4.95
2024-03-23T23:04:19.891Z,4.97
2024-03-23T23:06:46.200Z,4.95
2024-03-23T23:09:12.502Z,4.92
2024-03-23T23:11:38.816Z,4.91
2024-03-23T23:14:05.132Z,4.85
2024-03-23T23:16:31.482Z,4.81
2024-03-23T23:18:57.859Z,4.79
2024-03-23T23:21:24.182Z,4.78
2024-03-23T23:23:50.830Z,4.78
2024-03-23T23:26:17.144Z,4.78
2024-03-23T23:28:43.439Z,4.77
2024-03-23T23:31:09.795Z,4.71
2024-03-23T23:33:36.122Z,4.67
2024-03-23T23:36:02.457Z,4.64
2024-03-23T23:38:28.794Z,4.59
2024-03-23T23:40:55.140Z,4.55
2024-03-23T23:43:21.586Z,4.55
2024-03-23T23:45:47.892Z,4.56
2024-03-23T23:48:14.233Z,4.58
2024-03-23T23:50:41.329Z,4.59
2024-03-23T23:53:07.754Z,4.56
2024-03-23T23:55:34.086Z,4.54
2024-03-23T23:58:00.417Z,4.52
